Time;durP1;ratioP1;P1;durP2;ratioP2;P2;SDS_P1;SDS_P2;PMS_P1;PMS_P2;Temp;Humidity;BMP_temperature;BMP_pressure;BME280_temperature;BME280_humidity;BME280_pressure;Samples;Min_cycle;Max_cycle;Signal;HPM_P1;HPM_P2
2023/04/08 00:01:58;;;;;;;1999.90;999.90;;;;;;;6.07;100.00;95261.22;5063957;28;20168;-78
2023/04/08 00:04:23;;;;;;;1999.90;999.90;;;;;;;6.04;100.00;95245.72;5063521;28;20176;-78
2023/04/08 00:06:49;;;;;;;1999.90;999.90;;;;;;;6.06;100.00;95249.63;5063857;28;20183;-77
2023/04/08 00:09:16;;;;;;;1999.90;999.90;;;;;;;6.05;100.00;95244.59;5063790;28;20168;-77
2023/04/08 00:11:42;;;;;;;1999.90;999.90;;;;;;;6.04;100.00;95234.88;5063847;28;20191;-77
2023/04/08 00:14:07;;;;;;;1999.90;999.90;;;;;;;6.03;100.00;95230.63;5063891;28;20203;-76
2023/04/08 00:16:33;;;;;;;1999.90;999.90;;;;;;;6.04;100.00;95234.88;5063808;28;20183;-77
2023/04/08 00:18:58;;;;;;;1999.90;999.90;;;;;;;6.01;100.00;95224.81;5064066;28;20167;-77
2023/04/08 00:21:24;;;;;;;1999.90;999.90;;;;;;;6.00;100.00;95221.31;5063703;28;20232;-76
2023/04/08 00:23:49;;;;;;;1999.90;999.90;;;;;;;6.00;100.00;95223.25;5063632;28;20304;-75
2023/04/08 00:26:14;;;;;;;1999.90;999.90;;;;;;;5.96;100.00;95222.44;5064036;28;20221;-75
2023/04/08 00:28:41;;;;;;;1999.90;999.90;;;;;;;5.98;100.00;95210.06;5064036;28;20187;-76
2023/04/08 00:31:07;;;;;;;1999.90;999.90;;;;;;;5.96;100.00;95203.47;5063558;28;20297;-76
2023/04/08 00:33:32;;;;;;;1999.90;999.90;;;;;;;5.94;100.00;95200.38;5063536;28;20263;-76
2023/04/08 00:35:57;;;;;;;1999.90;999.90;;;;;;;5.93;100.00;95187.97;5063502;28;20239;-76
2023/04/08 00:38:23;;;;;;;1999.90;999.90;;;;;;;5.90;100.00;95181.38;5063738;28;20194;-76
2023/04/08 00:40:48;;;;;;;1999.90;999.90;;;;;;;5.90;100.00;95172.50;5063504;28;20167;-76
2023/04/08 00:43:15;;;;;;;1999.90;999.90;;;;;;;5.86;100.00;95155.41;5066750;28;20175;-76
2023/04/08 00:45:40;;;;;;;1999.90;999.90;;;;;;;5.83;100.00;95156.19;5068121;28;20170;-76
2023/04/08 00:48:06;;;;;;;1999.90;999.90;;;;;;;5.76;100.00;95137.16;5067494;28;20182;-75
2023/04/08 00:50:32;;;;;;;1999.90;999.90;;;;;;;5.74;100.00;95109.66;5067740;28;20174;-73
2023/04/08 00:52:57;;;;;;;1999.90;999.90;;;;;;;5.75;100.00;95070.56;5066979;28;20236;-75
2023/04/08 00:55:22;;;;;;;1999.90;999.90;;;;;;;5.70;100.00;95047.34;5067510;28;20259;-76
2023/04/08 00:57:48;;;;;;;1999.90;999.90;;;;;;;5.70;100.00;95024.91;5067340;28;20215;-75
2023/04/08 01:00:15;;;;;;;1999.90;999.90;;;;;;;5.70;100.00;94986.97;5067306;28;20276;-76
2023/04/08 01:03:04;;;;;;;1999.90;999.90;;;;;;;5.71;100.00;94939.75;5067249;28;20179;-76
2023/04/08 01:05:39;;;;;;;1999.90;999.90;;;;;;;5.70;100.00;94932.81;5067783;28;20163;-75
2023/04/08 01:08:07;;;;;;;1999.90;999.90;;;;;;;5.67;100.00;94911.91;5067607;28;20162;-75
2023/04/08 01:10:36;;;;;;;1999.90;999.90;;;;;;;5.64;100.00;94882.88;5066923;28;20172;-75
2023/04/08 01:13:09;;;;;;;1999.90;999.90;;;;;;;5.63;100.00;94863.16;5067477;28;20188;-76
2023/04/08 01:15:36;;;;;;;1999.90;999.90;;;;;;;5.61;100.00;94856.59;5067497;28;20171;-76
2023/04/08 01:18:06;;;;;;;1999.90;999.90;;;;;;;5.61;100.00;94840.34;5067433;28;20172;-74
2023/04/08 01:20:32;;;;;;;1999.90;999.90;;;;;;;5.58;100.00;94825.59;5067224;28;20170;-77
2023/04/08 01:23:00;;;;;;;1999.90;999.90;;;;;;;5.54;100.00;94810.53;5067290;28;20209;-79
2023/04/08 01:25:35;;;;;;;1999.90;999.90;;;;;;;5.52;100.00;94780.34;5066827;28;20183;-76
2023/04/08 01:28:04;;;;;;;1999.90;999.90;;;;;;;5.51;100.00;94751.75;5066728;28;20229;-76
2023/04/08 01:30:31;;;;;;;1999.90;999.90;;;;;;;5.51;100.00;94724.66;5066453;28;20224;-76
2023/04/08 01:32:59;;;;;;;1999.90;999.90;;;;;;;5.49;100.00;94706.09;5066546;28;20199;-76
2023/04/08 01:35:24;;;;;;;1999.90;999.90;;;;;;;5.49;100.00;94694.47;5066573;28;20177;-76
2023/04/08 01:37:52;;;;;;;1999.90;999.90;;;;;;;5.48;100.00;94677.47;5066593;28;20163;-75
2023/04/08 01:40:18;;;;;;;1999.90;999.90;;;;;;;5.42;100.00;94651.16;5066737;28;20228;-76
2023/04/08 01:42:47;;;;;;;1999.90;999.90;;;;;;;5.43;100.00;94631.09;5066413;28;20166;-77
2023/04/08 01:45:15;;;;;;;1999.90;999.90;;;;;;;5.40;100.00;94599.38;5066481;28;20177;-77
2023/04/08 01:47:43;;;;;;;1999.90;999.90;;;;;;;5.39;100.00;94570.75;5066428;28;20179;-77
2023/04/08 01:50:09;;;;;;;1999.90;999.90;;;;;;;5.38;100.00;94553.75;5066317;28;20166;-77
2023/04/08 01:52:37;;;;;;;1999.90;999.90;;;;;;;5.39;100.00;94528.22;5066249;28;20241;-77
2023/04/08 01:55:03;;;;;;;1999.90;999.90;;;;;;;5.39;100.00;94519.34;5066252;28;20198;-78
2023/04/08 01:57:34;;;;;;;1999.90;999.90;;;;;;;5.34;100.00;94506.97;5066214;28;20208;-77
2023/04/08 02:00:01;;;;;;;1999.90;999.90;;;;;;;5.32;100.00;94490.34;5066905;28;20181;-76
2023/04/08 02:02:28;;;;;;;1999.90;999.90;;;;;;;5.33;100.00;94491.13;5066074;28;20202;-77
2023/04/08 02:04:54;;;;;;;1999.90;999.90;;;;;;;5.31;100.00;94477.19;5066104;28;20186;-77
2023/04/08 02:07:20;;;;;;;1999.90;999.90;;;;;;;5.30;100.00;94443.97;5066482;28;20176;-76
2023/04/08 02:09:45;;;;;;;1999.90;999.90;;;;;;;5.34;100.00;94433.09;5065987;28;20193;-77
2023/04/08 02:12:11;;;;;;;1999.90;999.90;;;;;;;5.30;100.00;94427.72;5065887;28;20182;-77
2023/04/08 02:14:37;;;;;;;1999.90;999.90;;;;;;;5.29;100.00;94428.91;5065874;28;20204;-76
2023/04/08 02:17:18;;;;;;;1999.90;999.90;;;;;;;5.26;100.00;94426.19;5065784;28;20217;-77
2023/04/08 02:19:52;;;;;;;1999.90;999.90;;;;;;;5.26;100.00;94480.31;5065565;28;20174;-77
2023/04/08 02:22:28;;;;;;;1999.90;999.90;;;;;;;5.24;100.00;94466.41;5066335;28;20216;-75
2023/04/08 02:24:55;;;;;;;1999.90;999.90;;;;;;;5.24;100.00;94461.75;5065971;28;20177;-77
2023/04/08 02:27:23;;;;;;;1999.90;999.90;;;;;;;5.19;100.00;94442.44;5065599;28;20174;-77
2023/04/08 02:29:51;;;;;;;1999.90;999.90;;;;;;;5.22;100.00;94445.16;5065444;28;20289;-77
2023/04/08 02:32:17;;;;;;;1999.90;999.90;;;;;;;5.21;100.00;94432.00;5065621;28;20212;-77
2023/04/08 02:34:43;;;;;;;1999.90;999.90;;;;;;;5.19;100.00;94426.22;5065456;28;20219;-76
2023/04/08 02:37:09;;;;;;;1999.90;999.90;;;;;;;5.16;100.00;94424.28;5065534;28;20210;-76
2023/04/08 02:39:34;;;;;;;1999.90;999.90;;;;;;;5.12;100.00;94416.19;5065415;28;20170;-77
2023/04/08 02:42:00;;;;;;;1999.90;999.90;;;;;;;5.12;100.00;94410.00;5066069;28;20173;-76
2023/04/08 02:44:26;;;;;;;1999.90;999.90;;;;;;;5.13;100.00;94403.44;5065420;28;20185;-75
2023/04/08 02:46:51;;;;;;;1999.90;999.90;;;;;;;5.15;100.00;94395.69;5065488;28;20171;-74
2023/04/08 02:49:16;;;;;;;1999.90;999.90;;;;;;;5.18;100.00;94378.69;5065443;28;20171;-75
2023/04/08 02:51:42;;;;;;;1999.90;999.90;;;;;;;5.16;100.00;94378.28;5065186;28;20239;-77
2023/04/08 02:54:07;;;;;;;1999.90;999.90;;;;;;;5.16;100.00;94368.25;5065394;28;20209;-77
2023/04/08 02:56:32;;;;;;;1999.90;999.90;;;;;;;5.17;100.00;94339.25;5065159;28;20170;-78
2023/04/08 02:58:58;;;;;;;1999.90;999.90;;;;;;;5.19;100.00;94334.22;5064818;28;20211;-78
2023/04/08 03:01:23;;;;;;;1999.90;999.90;;;;;;;5.24;100.00;94331.88;5065112;28;20245;-77
2023/04/08 03:03:49;;;;;;;1999.90;999.90;;;;;;;5.28;100.00;94321.03;5064732;28;20166;-78
2023/04/08 03:06:14;;;;;;;1999.90;999.90;;;;;;;5.32;100.00;94316.38;5064412;28;20171;-76
2023/04/08 03:08:40;;;;;;;1999.90;999.90;;;;;;;5.36;100.00;94312.44;5065690;28;20245;-76
2023/04/08 03:11:05;;;;;;;1999.90;999.90;;;;;;;5.40;100.00;94313.22;5065055;28;20167;-77
2023/04/08 03:13:30;;;;;;;1999.90;999.90;;;;;;;5.42;100.00;94305.47;5064758;28;20203;-76
2023/04/08 03:15:56;;;;;;;1999.90;999.90;;;;;;;5.48;100.00;94298.47;5065245;28;20178;-77
2023/04/08 03:18:22;;;;;;;1999.90;999.90;;;;;;;5.53;100.00;94297.25;5065231;28;20173;-77
2023/04/08 03:20:47;;;;;;;1999.90;999.90;;;;;;;5.53;100.00;94289.13;5064671;28;20175;-76
2023/04/08 03:23:12;;;;;;;1999.90;999.90;;;;;;;5.56;100.00;94277.53;5064581;28;20205;-77
2023/04/08 03:25:38;;;;;;;1999.90;999.90;;;;;;;5.55;100.00;94276.00;5064487;28;20176;-77
2023/04/08 03:28:03;;;;;;;1999.90;999.90;;;;;;;5.61;100.00;94269.75;5065245;28;20172;-77
2023/04/08 03:30:29;;;;;;;1999.90;999.90;;;;;;;5.66;100.00;94260.44;5064457;28;20225;-77
2023/04/08 03:32:54;;;;;;;1999.90;999.90;;;;;;;5.67;100.00;94267.38;5064295;28;20169;-77
2023/04/08 03:35:19;;;;;;;1999.90;999.90;;;;;;;5.68;100.00;94274.34;5064334;28;20226;-77
2023/04/08 03:37:45;;;;;;;1999.90;999.90;;;;;;;5.72;100.00;94270.44;5064485;28;20176;-78
2023/04/08 03:40:11;;;;;;;1999.90;999.90;;;;;;;5.76;100.00;94276.59;5064982;28;20177;-77
2023/04/08 03:42:37;;;;;;;1999.90;999.90;;;;;;;5.72;100.00;94285.94;5064802;28;20170;-77
2023/04/08 03:45:03;;;;;;;1999.90;999.90;;;;;;;5.76;100.00;94290.13;5064109;28;20222;-77
2023/04/08 03:47:29;;;;;;;1999.90;999.90;;;;;;;5.75;100.00;94295.94;5064171;28;20172;-77
2023/04/08 03:49:54;;;;;;;1999.90;999.90;;;;;;;5.80;100.00;94300.94;5064057;28;20181;-76
2023/04/08 03:52:20;;;;;;;1999.90;999.90;;;;;;;5.79;100.00;94312.94;5064147;28;20170;-75
2023/04/08 03:54:45;;;;;;;1999.90;999.90;;;;;;;5.81;100.00;94319.53;5063958;28;20214;-78
2023/04/08 03:57:11;;;;;;;1999.90;999.90;;;;;;;5.80;100.00;94323.38;5064476;28;20171;-77
2023/04/08 03:59:38;;;;;;;1999.90;999.90;;;;;;;5.80;100.00;94328.78;5064038;28;20236;-75
2023/04/08 04:02:04;;;;;;;1999.90;999.90;;;;;;;5.81;100.00;94332.31;5063883;28;20173;-74
2023/04/08 04:04:29;;;;;;;1999.90;999.90;;;;;;;5.82;100.00;94337.31;5063889;28;20176;-77
2023/04/08 04:06:55;;;;;;;1999.90;999.90;;;;;;;5.80;100.00;94334.19;5063878;28;20173;-75
2023/04/08 04:09:20;;;;;;;1999.90;999.90;;;;;;;5.79;100.00;94340.78;5064330;28;20168;-76
2023/04/08 04:11:46;;;;;;;1999.90;999.90;;;;;;;5.79;100.00;94350.88;5063911;28;20181;-76
2023/04/08 04:14:11;;;;;;;1999.90;999.90;;;;;;;5.81;100.00;94351.25;5063876;28;20226;-74
2023/04/08 04:16:36;;;;;;;1999.90;999.90;;;;;;;5.82;100.00;94359.00;5063757;28;20184;-76
2023/04/08 04:19:02;;;;;;;1999.90;999.90;;;;;;;5.87;100.00;94363.22;5063722;28;20167;-77
2023/04/08 04:21:27;;;;;;;1999.90;999.90;;;;;;;5.87;100.00;94360.50;5063754;28;20195;-75
2023/04/08 04:23:53;;;;;;;1999.90;999.90;;;;;;;5.85;100.00;94365.53;5063617;28;20241;-75
2023/04/08 04:26:19;;;;;;;1999.90;999.90;;;;;;;5.89;100.00;94377.91;5063398;28;20177;-75
2023/04/08 04:28:45;;;;;;;1999.90;999.90;;;;;;;5.92;100.00;94370.91;5063600;28;20174;-76
2023/04/08 04:31:21;;;;;;;1999.90;999.90;;;;;;;5.96;100.00;94383.28;5063886;28;20292;-78
2023/04/08 04:33:47;;;;;;;1999.90;999.90;;;;;;;5.97;100.00;94386.72;5063989;28;20205;-77
2023/04/08 04:36:13;;;;;;;1999.90;999.90;;;;;;;6.01;100.00;94385.53;5063213;28;20199;-77
2023/04/08 04:38:38;;;;;;;1999.90;999.90;;;;;;;6.03;100.00;94390.56;5063405;28;20181;-78
2023/04/08 04:41:04;;;;;;;1999.90;999.90;;;;;;;6.10;100.00;94390.53;5063537;28;20180;-78
2023/04/08 04:43:29;;;;;;;1999.90;999.90;;;;;;;6.13;100.00;94389.72;5064178;28;20236;-77
2023/04/08 04:45:55;;;;;;;1999.90;999.90;;;;;;;6.14;100.00;94407.53;5063565;28;20176;-77
2023/04/08 04:48:22;;;;;;;1999.90;999.90;;;;;;;6.15;100.00;94411.75;5064099;28;20170;-78
2023/04/08 04:50:55;;;;;;;1999.90;999.90;;;;;;;6.21;100.00;94416.38;5063948;28;20173;-77
2023/04/08 04:53:20;;;;;;;1999.90;999.90;;;;;;;6.24;100.00;94415.56;5064004;28;20202;-77
2023/04/08 04:55:46;;;;;;;1999.90;999.90;;;;;;;6.25;100.00;94427.19;5063338;28;20223;-77
2023/04/08 04:58:11;;;;;;;1999.90;999.90;;;;;;;6.29;100.00;94434.13;5063213;28;20165;-77
2023/04/08 05:00:36;;;;;;;1999.90;999.90;;;;;;;6.37;100.00;94434.81;5063365;28;20202;-78
2023/04/08 05:03:02;;;;;;;1999.90;999.90;;;;;;;6.45;100.00;94436.34;5063763;28;20180;-77
2023/04/08 05:05:27;;;;;;;1999.90;999.90;;;;;;;6.47;100.00;94455.66;5063274;28;20331;-79
2023/04/08 05:07:52;;;;;;;1999.90;999.90;;;;;;;6.56;100.00;94464.13;5063730;28;20165;-76
2023/04/08 05:10:18;;;;;;;1999.90;999.90;;;;;;;6.59;100.00;94474.16;5063276;28;20228;-76
2023/04/08 05:12:43;;;;;;;1999.90;999.90;;;;;;;6.63;100.00;94483.81;5063608;28;20172;-76
2023/04/08 05:15:09;;;;;;;1999.90;999.90;;;;;;;6.64;100.00;94487.31;5063117;28;20252;-76
2023/04/08 05:17:34;;;;;;;1999.90;999.90;;;;;;;6.68;100.00;94493.47;5063719;28;20200;-76
2023/04/08 05:20:00;;;;;;;1999.90;999.90;;;;;;;6.75;100.00;94491.47;5063171;28;20233;-76
2023/04/08 05:22:25;;;;;;;1999.90;999.90;;;;;;;6.82;100.00;94504.22;5063613;28;20170;-76
2023/04/08 05:24:51;;;;;;;1999.90;999.90;;;;;;;6.90;100.00;94516.53;5063148;28;20245;-76
2023/04/08 05:27:16;;;;;;;1999.90;999.90;;;;;;;6.98;100.00;94528.88;5063021;28;20176;-76
2023/04/08 05:29:41;;;;;;;1999.90;999.90;;;;;;;7.04;100.00;94543.56;5067161;28;20232;-76
2023/04/08 05:32:07;;;;;;;1999.90;999.90;;;;;;;7.08;100.00;94549.72;5067157;28;20181;-76
2023/04/08 05:34:32;;;;;;;1999.90;999.90;;;;;;;7.16;100.00;94572.13;5067090;28;20280;-76
2023/04/08 05:36:57;;;;;;;1999.90;999.90;;;;;;;7.19;100.00;94588.41;5067123;28;20204;-76
2023/04/08 05:39:23;;;;;;;1999.90;999.90;;;;;;;7.24;100.00;94600.78;5067374;28;20177;-76
2023/04/08 05:41:48;;;;;;;1999.90;999.90;;;;;;;7.32;100.00;94608.44;5066423;28;20178;-77
2023/04/08 05:44:14;;;;;;;1999.90;999.90;;;;;;;7.36;100.00;94625.47;5066555;28;20178;-74
2023/04/08 05:46:39;;;;;;;1999.90;999.90;;;;;;;7.40;100.00;94647.97;5066502;28;20176;-75
2023/04/08 05:49:05;;;;;;;1999.90;999.90;;;;;;;7.37;100.00;94659.63;5066608;28;20184;-76
2023/04/08 05:51:30;;;;;;;1999.90;999.90;;;;;;;7.39;100.00;94687.16;5066881;28;20169;-79
2023/04/08 05:53:55;;;;;;;1999.90;999.90;;;;;;;7.45;100.00;94692.94;5066191;28;20222;-79
2023/04/08 05:56:21;;;;;;;1999.90;999.90;;;;;;;7.47;100.00;94704.94;5066121;28;20208;-79
2023/04/08 05:58:47;;;;;;;1999.90;999.90;;;;;;;7.58;100.00;94713.00;5066284;28;20196;-79
2023/04/08 06:01:12;;;;;;;1999.90;999.90;;;;;;;7.66;100.00;94737.00;5066779;28;20179;-79
2023/04/08 06:03:38;;;;;;;1999.90;999.90;;;;;;;7.67;100.00;94759.50;5066759;28;20177;-79
2023/04/08 06:06:08;;;;;;;1999.90;999.90;;;;;;;7.76;100.00;94768.75;5066122;28;20181;-81
2023/04/08 06:08:33;;;;;;;1999.90;999.90;;;;;;;7.76;100.00;94785.06;5066109;28;20241;-79
2023/04/08 06:10:59;;;;;;;1999.90;999.90;;;;;;;7.85;100.00;94809.84;5066530;28;20223;-78
2023/04/08 06:13:24;;;;;;;1999.90;999.90;;;;;;;7.95;100.00;94814.44;5066442;28;20204;-78
2023/04/08 06:15:50;;;;;;;1999.90;999.90;;;;;;;8.02;100.00;94847.00;5066089;28;20177;-77
2023/04/08 06:18:16;;;;;;;1999.90;999.90;;;;;;;8.03;100.00;94859.41;5066665;28;20212;-78
2023/04/08 06:20:41;;;;;;;1999.90;999.90;;;;;;;8.07;100.00;94870.25;5066459;28;20193;-77
2023/04/08 06:23:07;;;;;;;1999.90;999.90;;;;;;;8.13;100.00;94880.34;5067009;28;20174;-79
2023/04/08 06:25:32;;;;;;;1999.90;999.90;;;;;;;8.25;100.00;94882.59;5066647;28;20189;-78
2023/04/08 06:27:58;;;;;;;1999.90;999.90;;;;;;;8.26;100.00;94903.16;5066204;28;20176;-78
2023/04/08 06:30:23;;;;;;;1999.90;999.90;;;;;;;8.33;100.00;94915.94;5065535;28;20224;-77
2023/04/08 06:32:49;;;;;;;1999.90;999.90;;;;;;;8.42;100.00;94927.91;5066049;28;20170;-77
2023/04/08 06:35:14;;;;;;;1999.90;999.90;;;;;;;8.44;100.00;94954.72;5065699;28;20170;-77
2023/04/08 06:37:40;;;;;;;1999.90;999.90;;;;;;;8.39;100.00;94974.97;5066146;28;20197;-76
2023/04/08 06:40:06;;;;;;;1999.90;999.90;;;;;;;8.30;100.00;94987.47;5065977;28;20310;-77
2023/04/08 06:42:31;;;;;;;1999.90;999.90;;;;;;;8.35;100.00;94996.00;5065674;28;20177;-76
2023/04/08 06:44:57;;;;;;;1999.90;999.90;;;;;;;8.35;100.00;94993.28;5065610;28;20174;-76
2023/04/08 06:47:22;;;;;;;1999.90;999.90;;;;;;;8.33;100.00;95001.03;5065953;28;20174;-77
2023/04/08 06:49:48;;;;;;;1999.90;999.90;;;;;;;8.34;100.00;95015.44;5065326;28;20191;-76
2023/04/08 06:52:13;;;;;;;1999.90;999.90;;;;;;;8.29;100.00;95024.00;5065572;28;20174;-75
2023/04/08 06:54:38;;;;;;;1999.90;999.90;;;;;;;8.28;100.00;95033.34;5065382;28;20208;-77
2023/04/08 06:57:04;;;;;;;1999.90;999.90;;;;;;;8.31;100.00;95033.28;5065253;28;20414;-78
2023/04/08 06:59:29;;;;;;;1999.90;999.90;;;;;;;8.33;100.00;95047.28;5065067;28;20170;-76
2023/04/08 07:01:55;;;;;;;1999.90;999.90;;;;;;;8.36;100.00;95060.09;5065919;28;20167;-77
2023/04/08 07:04:20;;;;;;;1999.90;999.90;;;;;;;8.35;100.00;95072.16;5064999;28;20165;-78
2023/04/08 07:06:45;;;;;;;1999.90;999.90;;;;;;;8.43;100.00;95072.88;5065048;28;20193;-77
2023/04/08 07:09:11;;;;;;;1999.90;999.90;;;;;;;8.54;100.00;95079.81;5064978;28;20184;-77
2023/04/08 07:11:36;;;;;;;1999.90;999.90;;;;;;;8.56;100.00;95088.34;5065312;28;20169;-77
2023/04/08 07:14:02;;;;;;;1999.90;999.90;;;;;;;8.45;100.00;95103.97;5064873;28;20198;-77
2023/04/08 07:16:27;;;;;;;1999.90;999.90;;;;;;;8.56;100.00;95115.56;5065223;28;20189;-77
2023/04/08 07:18:52;;;;;;;1999.90;999.90;;;;;;;8.54;100.00;95134.25;5064790;28;20181;-77
2023/04/08 07:21:18;;;;;;;1999.90;999.90;;;;;;;8.47;100.00;95158.78;5064717;28;20249;-77
2023/04/08 07:23:43;;;;;;;1999.90;999.90;;;;;;;8.65;100.00;95162.19;5064583;28;20171;-76
2023/04/08 07:26:09;;;;;;;1999.90;999.90;;;;;;;8.69;100.00;95187.44;5064949;28;20173;-76
2023/04/08 07:28:34;;;;;;;1999.90;999.90;;;;;;;8.72;100.00;95205.72;5064684;28;20173;-77
2023/04/08 07:31:14;;;;;;;1999.90;999.90;;;;;;;8.58;100.00;95211.22;5064601;28;20290;-77
2023/04/08 07:33:40;;;;;;;1999.90;999.90;;;;;;;8.51;100.00;95227.56;5064889;28;20221;-77
2023/04/08 07:36:07;;;;;;;1999.90;999.90;;;;;;;8.54;100.00;95229.50;5064446;28;20178;-77
2023/04/08 07:38:34;;;;;;;1999.90;999.90;;;;;;;8.55;100.00;95232.97;5064932;28;20191;-77
2023/04/08 07:40:59;;;;;;;1999.90;999.90;;;;;;;8.61;100.00;95243.09;5064832;28;20198;-78
2023/04/08 07:43:25;;;;;;;1999.90;999.90;;;;;;;8.57;100.00;95253.22;5064333;28;20236;-78
2023/04/08 07:45:51;;;;;;;1999.90;999.90;;;;;;;8.45;100.00;95258.28;5064962;28;20174;-78
2023/04/08 07:48:16;;;;;;;1999.90;999.90;;;;;;;8.42;100.00;95299.88;5064202;28;20236;-78
2023/04/08 07:50:41;;;;;;;1999.90;999.90;;;;;;;8.39;100.00;95328.66;5063726;28;20204;-77
2023/04/08 07:53:07;;;;;;;1999.90;999.90;;;;;;;8.37;100.00;95363.63;5064844;28;20185;-78
2023/04/08 07:55:35;;;;;;;1999.90;999.90;;;;;;;8.36;100.00;95388.50;5064272;28;20371;-78
2023/04/08 07:58:01;;;;;;;1999.90;999.90;;;;;;;8.29;100.00;95394.72;5064020;28;20227;-79
2023/04/08 08:00:29;;;;;;;1999.90;999.90;;;;;;;8.18;100.00;95421.09;5064383;28;20181;-78
2023/04/08 08:02:55;;;;;;;1999.90;999.90;;;;;;;8.03;100.00;95430.41;5063988;28;20170;-77
2023/04/08 08:05:20;;;;;;;1999.90;999.90;;;;;;;8.23;100.00;95439.78;5064080;28;20207;-78
2023/04/08 08:07:45;;;;;;;1999.90;999.90;;;;;;;8.17;100.00;95452.19;5064329;28;20177;-77
2023/04/08 08:10:11;;;;;;;1999.90;999.90;;;;;;;8.26;100.00;95455.34;5064002;28;20165;-77
2023/04/08 08:12:36;;;;;;;1999.90;999.90;;;;;;;8.52;100.00;95463.13;5064606;28;20176;-77
2023/04/08 08:15:02;;;;;;;1999.90;999.90;;;;;;;8.51;100.00;95477.91;5064136;28;20201;-77
2023/04/08 08:17:29;;;;;;;1999.90;999.90;;;;;;;8.54;100.00;95488.03;5064006;28;20173;-77
2023/04/08 08:19:55;;;;;;;1999.90;999.90;;;;;;;8.69;100.00;95489.59;5064209;28;20248;-77
2023/04/08 08:22:21;;;;;;;1999.90;999.90;;;;;;;8.59;100.00;95498.53;5064178;28;20193;-77
2023/04/08 08:24:46;;;;;;;1999.90;999.90;;;;;;;8.42;100.00;95495.78;5064012;28;20235;-77
2023/04/08 08:27:12;;;;;;;1999.90;999.90;;;;;;;8.18;100.00;95480.16;5064327;28;20216;-78
2023/04/08 08:29:37;;;;;;;1999.90;999.90;;;;;;;7.98;100.00;95482.44;5063599;28;20173;-78
2023/04/08 08:32:03;;;;;;;1999.90;999.90;;;;;;;7.63;100.00;95473.38;5063278;28;20253;-77
2023/04/08 08:34:28;;;;;;;1999.90;999.90;;;;;;;7.71;100.00;95478.47;5063940;28;20243;-78
2023/04/08 08:36:54;;;;;;;1999.90;999.90;;;;;;;7.54;100.00;95467.53;5063441;28;20165;-77
2023/04/08 08:39:20;;;;;;;1999.90;999.90;;;;;;;7.43;100.00;95453.88;5063462;28;20169;-78
2023/04/08 08:41:45;;;;;;;1999.90;999.90;;;;;;;7.34;100.00;95455.38;5063346;28;20172;-77
2023/04/08 08:44:12;;;;;;;1999.90;999.90;;;;;;;7.31;100.00;95437.91;5063479;28;20169;-78
2023/04/08 08:46:43;;;;;;;1999.90;999.90;;;;;;;7.45;100.00;95442.63;5063525;28;20169;-78
2023/04/08 08:49:08;;;;;;;1999.90;999.90;;;;;;;7.47;100.00;95434.91;5063655;28;20165;-78
2023/04/08 08:51:34;;;;;;;1999.90;999.90;;;;;;;7.51;100.00;95431.03;5063323;28;20176;-78
2023/04/08 08:54:03;;;;;;;1999.90;999.90;;;;;;;7.55;100.00;95431.81;5063742;28;20259;-78
2023/04/08 08:56:28;;;;;;;1999.90;999.90;;;;;;;7.62;100.00;95428.34;5063332;28;20169;-79
2023/04/08 08:58:54;;;;;;;1999.90;999.90;;;;;;;7.53;100.00;95415.13;5063332;28;20177;-79
2023/04/08 09:01:36;;;;;;;1999.90;999.90;;;;;;;7.67;100.00;95419.81;5063519;28;20190;-79
2023/04/08 09:04:18;;;;;;;1999.90;999.90;;;;;;;7.75;100.00;95419.47;5066745;28;20196;-78
2023/04/08 09:07:04;;;;;;;1999.90;999.90;;;;;;;7.65;100.00;95425.63;5067782;28;20211;-78
2023/04/08 09:09:47;;;;;;;1999.90;999.90;;;;;;;7.71;100.00;95429.53;5059830;28;20187;-79
2023/04/08 09:12:13;;;;;;;1999.90;999.90;;;;;;;7.51;100.00;95435.69;5067846;28;20245;-79
2023/04/08 09:14:39;;;;;;;1999.90;999.90;;;;;;;7.43;100.00;95440.28;5067593;28;20259;-79
2023/04/08 09:17:05;;;;;;;1999.90;999.90;;;;;;;7.30;100.00;95425.50;5067566;28;20212;-79
2023/04/08 09:19:30;;;;;;;1999.90;999.90;;;;;;;7.18;100.00;95422.34;5067743;28;20169;-79
2023/04/08 09:22:11;;;;;;;1999.90;999.90;;;;;;;7.20;100.00;95396.34;5067434;28;20169;-80
2023/04/08 09:24:37;;;;;;;1999.90;999.90;;;;;;;7.22;100.00;95391.34;5067144;28;20170;-79
2023/04/08 09:27:03;;;;;;;1999.90;999.90;;;;;;;7.17;100.00;95378.09;5066707;28;20223;-80
2023/04/08 09:29:29;;;;;;;1999.90;999.90;;;;;;;7.28;100.00;95376.22;5067162;28;20222;-79
2023/04/08 09:31:59;;;;;;;1999.90;999.90;;;;;;;7.19;100.00;95385.88;5067396;28;20455;-77
2023/04/08 09:34:26;;;;;;;1999.90;999.90;;;;;;;7.18;100.00;95379.69;5066862;28;20209;-79
2023/04/08 09:36:52;;;;;;;1999.90;999.90;;;;;;;7.30;100.00;95371.19;5066886;28;20477;-78
2023/04/08 09:39:18;;;;;;;1999.90;999.90;;;;;;;7.36;100.00;95360.72;5066819;28;20177;-79
2023/04/08 09:41:46;;;;;;;1999.90;999.90;;;;;;;7.33;100.00;95365.00;5066743;28;20251;-78
2023/04/08 09:44:15;;;;;;;1999.90;999.90;;;;;;;7.30;100.00;95360.31;5066667;28;20173;-77
2023/04/08 09:46:47;;;;;;;1999.90;999.90;;;;;;;7.25;100.00;95357.97;5067176;28;20170;-76
2023/04/08 09:49:17;;;;;;;1999.90;999.90;;;;;;;7.04;100.00;95357.91;5066337;28;20172;-77
2023/04/08 09:51:56;;;;;;;1999.90;999.90;;;;;;;7.19;100.00;95337.00;5066194;28;20181;-77
2023/04/08 09:54:31;;;;;;;1999.90;999.90;;;;;;;7.22;100.00;95345.16;5066262;28;20215;-77
2023/04/08 09:57:07;;;;;;;1999.90;999.90;;;;;;;7.22;100.00;95347.88;5066866;28;20186;-74
2023/04/08 09:59:35;;;;;;;1999.90;999.90;;;;;;;7.30;100.00;95357.59;5066888;28;20172;-75
2023/04/08 10:02:06;;;;;;;1999.90;999.90;;;;;;;7.41;100.00;95366.56;5066737;28;20256;-74
2023/04/08 10:04:37;;;;;;;1999.90;999.90;;;;;;;7.53;100.00;95379.00;5066697;28;20215;-73
2023/04/08 10:07:05;;;;;;;1999.90;999.90;;;;;;;7.58;100.00;95387.56;5066412;28;20201;-73
2023/04/08 10:09:31;;;;;;;1999.90;999.90;;;;;;;7.73;100.00;95402.78;5066028;28;20207;-73
2023/04/08 10:11:57;;;;;;;1999.90;999.90;;;;;;;7.95;100.00;95412.53;5065910;28;20184;-74
2023/04/08 10:14:22;;;;;;;1999.90;999.90;;;;;;;8.19;100.00;95421.91;5065741;28;20200;-74
2023/04/08 10:16:48;;;;;;;1999.90;999.90;;;;;;;8.38;100.00;95441.34;5066092;28;20176;-74
2023/04/08 10:19:37;;;;;;;1999.90;999.90;;;;;;;8.74;100.00;95453.06;5066371;28;20196;-75
2023/04/08 10:22:03;;;;;;;1999.90;999.90;;;;;;;9.24;100.00;95463.47;5066340;28;20255;-75
2023/04/08 10:24:28;;;;;;;1999.90;999.90;;;;;;;9.45;100.00;95487.97;5066189;28;20169;-75
2023/04/08 10:26:53;;;;;;;1999.90;999.90;;;;;;;9.75;100.00;95496.44;5066010;28;20245;-76
2023/04/08 10:29:25;;;;;;;1999.90;999.90;;;;;;;9.97;100.00;95506.09;5065456;28;20170;-77
2023/04/08 10:31:51;;;;;;;1999.90;999.90;;;;;;;9.89;100.00;95523.66;5066366;28;20177;-76
2023/04/08 10:34:25;;;;;;;1999.90;999.90;;;;;;;9.93;100.00;95529.88;5065415;28;20205;-76
2023/04/08 10:36:52;;;;;;;1999.90;999.90;;;;;;;9.80;100.00;95528.75;5066158;28;20166;-76
2023/04/08 10:39:17;;;;;;;1999.90;999.90;;;;;;;9.87;100.00;95530.66;5065524;28;20209;-76
2023/04/08 10:41:43;;;;;;;1999.90;999.90;;;;;;;9.64;100.00;95531.16;5065468;28;20173;-76
2023/04/08 10:44:19;;;;;;;1999.90;999.90;;;;;;;9.60;100.00;95532.31;5066189;28;20173;-77
2023/04/08 10:46:49;;;;;;;1999.90;999.90;;;;;;;9.58;100.00;95529.97;5065855;28;20175;-76
2023/04/08 10:49:16;;;;;;;1999.90;999.90;;;;;;;9.82;100.00;95518.25;5065698;28;20188;-77
2023/04/08 10:51:43;;;;;;;1999.90;999.90;;;;;;;9.79;100.00;95537.31;5065309;28;20232;-77
2023/04/08 10:54:10;;;;;;;1999.90;999.90;;;;;;;9.95;100.00;95532.97;5065593;28;20212;-77